Skip to main content

Madeira, Porto Moniz

ID 1210956 · 32.8675, -17.1714 map

Latest reading · 2026-05-09 19:00 (Europe/Lisbon)

Temperature
17.5 °C
Humidity
70 %
Pressure
Precipitation
0.0 mm
Radiation
426 W/m²
Wind speed
Wind direction
No wind

24-hour history

Time (Europe/Lisbon) Temp Humidity Pressure Rain Wind Dir
2026-05-09 19:00 17.5 °C 70 % 0.0 mm
2026-05-09 18:00 17.6 °C 73 % 0.0 mm
2026-05-09 17:00 17.6 °C 70 % 0.0 mm
2026-05-09 16:00 17.4 °C 72 % 0.0 mm
2026-05-09 15:00 17.7 °C 69 % 0.0 mm
2026-05-09 14:00 18.0 °C 66 % 0.0 mm
2026-05-09 13:00 18.1 °C 67 % 0.0 mm
2026-05-09 12:00 18.0 °C 70 % 0.0 mm
2026-05-09 11:00 16.8 °C 79 % 0.4 mm
2026-05-09 10:00 17.3 °C 73 % 0.0 mm
2026-05-09 09:00 16.9 °C 76 % 0.0 mm
2026-05-09 08:00 16.8 °C 76 % 0.0 mm
2026-05-09 07:00 16.8 °C 75 % 0.0 mm
2026-05-09 06:00 16.9 °C 78 % 0.0 mm
2026-05-09 05:00 16.8 °C 79 % 0.0 mm
2026-05-09 04:00 16.6 °C 80 % 0.1 mm
2026-05-09 03:00 16.6 °C 78 % 0.8 mm
2026-05-09 02:00 17.0 °C 77 % 0.0 mm
2026-05-09 01:00 17.3 °C 75 % 0.0 mm
2026-05-09 00:00 17.4 °C 75 % 0.0 mm
2026-05-08 23:00 17.4 °C 76 % 0.0 mm
2026-05-08 22:00 17.5 °C 74 % 0.0 mm
2026-05-08 21:00 17.5 °C 75 % 0.0 mm
2026-05-08 20:00 16.6 °C 75 % 0.1 mm